createdAt,value
2018-09-28T00:00:15.787Z,9.50
2018-09-28T00:02:44.170Z,10.20
2018-09-28T00:05:12.517Z,9.30
2018-09-28T00:07:42.076Z,9.37
2018-09-28T00:10:10.470Z,10.25
2018-09-28T00:12:38.831Z,9.75
2018-09-28T00:15:07.209Z,9.55
2018-09-28T00:17:35.570Z,9.55
2018-09-28T00:20:03.928Z,9.30
2018-09-28T00:22:32.317Z,10.15
2018-09-28T00:25:00.676Z,9.70
2018-09-28T00:28:08.735Z,10.60
2018-09-28T00:30:37.198Z,10.78
2018-09-28T00:33:05.574Z,11.00
2018-09-28T00:35:33.951Z,11.38
2018-09-28T00:38:02.544Z,10.40
2018-09-28T00:40:30.880Z,11.15
2018-09-28T00:42:59.248Z,10.95
2018-09-28T00:45:27.599Z,11.10
2018-09-28T00:47:55.928Z,10.90
2018-09-28T00:50:24.316Z,11.30
2018-09-28T00:52:52.713Z,12.60
2018-09-28T00:55:21.117Z,10.90
2018-09-28T00:57:49.484Z,12.78
2018-09-28T01:00:18.896Z,12.15
2018-09-28T01:02:47.236Z,12.13
2018-09-28T01:05:15.641Z,12.05
2018-09-28T01:07:44.084Z,12.50
2018-09-28T01:10:12.517Z,12.15
2018-09-28T01:12:40.857Z,12.00
2018-09-28T01:15:09.201Z,11.63
2018-09-28T01:17:37.996Z,10.97
2018-09-28T01:20:06.658Z,11.33
2018-09-28T01:22:35.089Z,10.72
2018-09-28T01:25:05.616Z,10.23
2018-09-28T01:27:33.954Z,10.80
2018-09-28T01:30:02.328Z,9.73
2018-09-28T01:32:30.888Z,10.80
2018-09-28T01:34:59.268Z,10.03
2018-09-28T01:37:27.600Z,10.20
2018-09-28T01:39:55.972Z,10.00
2018-09-28T01:42:24.363Z,10.60
2018-09-28T01:44:52.744Z,10.30
2018-09-28T01:47:21.077Z,10.40
2018-09-28T01:49:49.442Z,10.85
2018-09-28T01:52:17.823Z,10.60
2018-09-28T01:54:46.180Z,10.50
2018-09-28T01:57:14.557Z,10.53
2018-09-28T01:59:42.962Z,10.45
2018-09-28T02:02:11.353Z,10.30
2018-09-28T02:04:39.708Z,11.90
2018-09-28T02:07:08.078Z,11.40
2018-09-28T02:09:36.468Z,12.10
2018-09-28T02:12:04.815Z,12.35
2018-09-28T02:14:33.187Z,12.60
2018-09-28T02:17:01.528Z,11.50
2018-09-28T02:19:29.929Z,11.75
2018-09-28T02:21:58.264Z,12.85
2018-09-28T02:24:26.610Z,12.17
2018-09-28T02:26:54.960Z,12.82
2018-09-28T02:29:23.384Z,12.65
2018-09-28T02:31:51.736Z,12.30
2018-09-28T02:34:20.111Z,12.30
2018-09-28T02:36:48.550Z,12.70
2018-09-28T02:39:16.906Z,11.95
2018-09-28T02:41:45.277Z,11.40
2018-09-28T02:44:13.630Z,12.40
2018-09-28T02:46:42.013Z,12.10
2018-09-28T02:49:10.370Z,11.80
2018-09-28T02:51:38.745Z,11.10
2018-09-28T02:54:07.094Z,12.30
2018-09-28T02:56:35.522Z,12.05
2018-09-28T02:59:03.936Z,12.07
2018-09-28T03:01:32.297Z,11.53
2018-09-28T03:04:00.667Z,11.30
2018-09-28T03:06:29.326Z,11.40
2018-09-28T03:08:57.919Z,11.97
2018-09-28T03:11:26.322Z,11.93
2018-09-28T03:13:54.734Z,11.80
2018-09-28T03:16:23.078Z,12.33
2018-09-28T03:18:51.484Z,12.50
2018-09-28T03:21:19.891Z,12.43
2018-09-28T03:23:48.270Z,11.95
2018-09-28T03:26:16.600Z,12.47
2018-09-28T03:28:44.954Z,11.78
2018-09-28T03:31:13.270Z,12.50
2018-09-28T03:33:41.679Z,13.98
2018-09-28T03:36:10.099Z,13.58
2018-09-28T03:38:39.002Z,13.53
2018-09-28T03:41:07.320Z,13.80
2018-09-28T03:43:35.773Z,13.57
2018-09-28T03:46:04.124Z,13.38
2018-09-28T03:48:32.719Z,14.50
2018-09-28T03:51:01.127Z,13.60
2018-09-28T03:53:29.454Z,13.98
2018-09-28T03:55:57.799Z,15.50
2018-09-28T03:58:26.187Z,15.10
2018-09-28T04:00:54.558Z,15.32
2018-09-28T04:03:22.907Z,15.20
2018-09-28T04:05:51.281Z,15.03
2018-09-28T04:08:19.758Z,15.20
2018-09-28T04:10:48.105Z,16.55
2018-09-28T04:13:16.424Z,15.38
2018-09-28T04:15:44.795Z,15.50
2018-09-28T04:18:35.600Z,16.50
2018-09-28T04:21:06.339Z,15.28
2018-09-28T04:23:34.672Z,16.10
2018-09-28T04:26:03.064Z,16.30
2018-09-28T04:28:31.415Z,16.35
2018-09-28T04:31:00.884Z,16.42
2018-09-28T04:33:29.248Z,16.12
2018-09-28T04:35:57.654Z,15.90
2018-09-28T04:38:26.080Z,16.93
2018-09-28T04:40:54.415Z,16.75
2018-09-28T04:43:22.805Z,17.45
2018-09-28T04:45:51.402Z,17.70
2018-09-28T04:48:19.762Z,18.20
2018-09-28T04:50:48.118Z,17.12
2018-09-28T04:53:16.476Z,17.70
2018-09-28T04:55:45.976Z,18.70
2018-09-28T04:58:14.663Z,18.62
2018-09-28T05:00:42.993Z,19.63
2018-09-28T05:03:11.409Z,19.85
2018-09-28T05:05:39.835Z,19.60
2018-09-28T05:08:08.227Z,19.20
2018-09-28T05:10:36.619Z,20.60
2018-09-28T05:13:05.134Z,18.98
2018-09-28T05:15:33.463Z,19.50
2018-09-28T05:18:02.635Z,20.27
2018-09-28T05:20:30.985Z,20.30
2018-09-28T05:22:59.339Z,20.80
2018-09-28T05:25:27.822Z,20.37
2018-09-28T05:27:56.159Z,20.90
2018-09-28T05:30:24.551Z,21.15
2018-09-28T05:32:52.979Z,22.93
2018-09-28T05:35:21.280Z,24.05
2018-09-28T05:37:49.631Z,23.83
2018-09-28T05:40:18.077Z,23.30
2018-09-28T05:42:47.306Z,23.60
2018-09-28T05:45:15.797Z,26.10
2018-09-28T05:47:44.348Z,25.62
2018-09-28T05:50:12.736Z,27.45
2018-09-28T05:52:41.106Z,25.88
2018-09-28T05:55:09.500Z,26.60
2018-09-28T05:57:37.868Z,26.45
2018-09-28T06:00:11.520Z,27.73
2018-09-28T06:02:45.310Z,26.80
2018-09-28T06:05:19.176Z,27.22
2018-09-28T06:07:47.525Z,29.13
2018-09-28T06:10:15.987Z,28.02
2018-09-28T06:12:44.335Z,28.90
2018-09-28T06:15:12.653Z,28.75
2018-09-28T06:17:41.036Z,29.15
2018-09-28T06:20:09.400Z,31.83
2018-09-28T06:22:37.792Z,32.23
2018-09-28T06:25:06.581Z,33.02
2018-09-28T06:27:34.936Z,33.05
2018-09-28T06:30:03.373Z,33.75
2018-09-28T06:32:31.719Z,32.88
2018-09-28T06:35:04.024Z,35.03
2018-09-28T06:37:33.210Z,33.60
2018-09-28T06:40:01.507Z,32.77
2018-09-28T06:42:29.922Z,32.10
2018-09-28T06:44:58.284Z,32.50
2018-09-28T06:47:26.669Z,34.13
2018-09-28T06:49:55.060Z,34.35
2018-09-28T06:52:23.412Z,32.63
2018-09-28T06:54:51.788Z,31.87
2018-09-28T06:57:20.625Z,30.92
2018-09-28T06:59:49.074Z,31.37
2018-09-28T07:02:17.403Z,30.87
2018-09-28T07:04:45.956Z,30.90
2018-09-28T07:07:14.485Z,30.68
2018-09-28T07:09:42.825Z,28.05
2018-09-28T07:12:11.255Z,28.20
2018-09-28T07:14:39.593Z,28.12
2018-09-28T07:17:08.092Z,28.32
2018-09-28T07:19:36.653Z,26.75
2018-09-28T07:22:05.088Z,25.07
2018-09-28T07:24:33.517Z,24.47
2018-09-28T07:27:01.819Z,23.87
2018-09-28T07:29:30.179Z,25.30
2018-09-28T07:31:58.533Z,19.73
2018-09-28T07:34:26.961Z,16.30
2018-09-28T07:36:55.409Z,15.40
2018-09-28T07:39:23.766Z,12.90
2018-09-28T07:41:52.140Z,10.00
2018-09-28T07:44:20.631Z,5.47
2018-09-28T07:46:48.962Z,4.30
2018-09-28T07:49:17.356Z,4.00
2018-09-28T07:51:45.635Z,3.67
2018-09-28T07:54:14.048Z,4.20
2018-09-28T07:56:42.556Z,3.50
2018-09-28T07:59:10.903Z,2.50
2018-09-28T08:01:39.226Z,2.63
2018-09-28T08:04:07.925Z,2.55
2018-09-28T08:09:18.207Z,3.05
2018-09-28T08:11:47.068Z,3.00
2018-09-28T08:14:15.397Z,3.33
2018-09-28T08:16:44.032Z,2.90
2018-09-28T08:19:12.400Z,3.42
2018-09-28T08:21:40.776Z,4.00
2018-09-28T08:24:09.213Z,2.83
2018-09-28T08:26:37.691Z,3.77
2018-09-28T08:29:06.290Z,4.22
2018-09-28T08:31:34.733Z,3.70
2018-09-28T08:34:03.117Z,3.80
2018-09-28T08:36:31.558Z,3.87
2018-09-28T08:38:59.827Z,4.05
2018-09-28T08:41:28.233Z,4.45
2018-09-28T08:43:56.674Z,4.50
2018-09-28T08:46:25.010Z,4.60
2018-09-28T08:48:53.326Z,4.28
2018-09-28T08:51:21.702Z,4.78
2018-09-28T08:53:50.309Z,5.33
2018-09-28T08:56:18.689Z,4.70
2018-09-28T08:58:47.336Z,4.45
2018-09-28T09:01:15.801Z,4.10
2018-09-28T09:03:44.267Z,3.90
2018-09-28T09:06:12.823Z,3.98
2018-09-28T09:08:41.209Z,3.77
2018-09-28T09:11:09.561Z,3.60
2018-09-28T09:13:38.240Z,3.50
2018-09-28T09:16:06.625Z,3.62
2018-09-28T09:18:35.966Z,3.10
2018-09-28T09:21:04.427Z,3.37
2018-09-28T09:23:32.845Z,2.77
2018-09-28T09:26:01.314Z,2.87
2018-09-28T09:28:30.248Z,3.10
2018-09-28T09:30:58.607Z,3.20
2018-09-28T09:33:27.096Z,4.25
2018-09-28T09:35:55.731Z,3.60
2018-09-28T09:38:24.232Z,4.10
2018-09-28T09:40:52.711Z,3.70
2018-09-28T09:43:21.117Z,3.90
2018-09-28T09:45:49.489Z,4.15
2018-09-28T09:48:17.922Z,3.30
2018-09-28T09:50:46.339Z,3.40
2018-09-28T09:53:14.824Z,2.77
2018-09-28T09:55:43.189Z,3.72
2018-09-28T09:58:13.556Z,4.20
2018-09-28T10:00:48.501Z,2.70
2018-09-28T10:03:22.042Z,3.27
2018-09-28T10:05:50.431Z,3.50
2018-09-28T10:08:19.044Z,3.12
2018-09-28T10:10:47.413Z,2.50
2018-09-28T10:13:15.873Z,2.92
2018-09-28T10:15:44.265Z,3.72
2018-09-28T10:18:12.593Z,2.90
2018-09-28T10:20:40.931Z,2.83
2018-09-28T10:23:09.408Z,3.37
2018-09-28T10:25:37.740Z,3.50
2018-09-28T10:28:06.252Z,2.90
2018-09-28T10:30:34.545Z,3.40
2018-09-28T10:33:02.914Z,2.80
2018-09-28T10:35:31.218Z,4.10
2018-09-28T10:37:59.809Z,3.10
2018-09-28T10:40:29.477Z,3.20
2018-09-28T10:42:57.707Z,3.27
2018-09-28T10:45:26.089Z,2.93
2018-09-28T10:47:54.415Z,3.10
2018-09-28T10:50:22.763Z,3.62
2018-09-28T10:52:51.170Z,3.00
2018-09-28T10:55:19.459Z,3.10
2018-09-28T10:57:47.848Z,3.12
2018-09-28T11:00:16.336Z,3.90
2018-09-28T11:02:44.733Z,3.05
2018-09-28T11:05:13.122Z,3.72
2018-09-28T11:07:41.651Z,2.90
2018-09-28T11:10:10.169Z,3.00
2018-09-28T11:12:38.561Z,3.17
2018-09-28T11:15:06.960Z,3.17
2018-09-28T11:17:35.284Z,3.62
2018-09-28T11:20:04.531Z,3.15
2018-09-28T11:22:32.932Z,3.00
2018-09-28T11:25:01.298Z,2.85
2018-09-28T11:27:29.652Z,3.60
2018-09-28T11:29:58.056Z,2.50
2018-09-28T11:32:26.392Z,2.92
2018-09-28T11:34:54.739Z,3.65
2018-09-28T11:37:23.067Z,3.55
2018-09-28T11:39:51.438Z,2.60
2018-09-28T11:42:19.812Z,2.60
2018-09-28T11:44:48.122Z,3.33
2018-09-28T11:47:16.481Z,2.75
2018-09-28T11:49:44.826Z,3.00
2018-09-28T11:52:13.182Z,2.53
2018-09-28T11:54:42.103Z,10.70
2018-09-28T11:57:10.471Z,2.90
2018-09-28T11:59:38.822Z,3.50
2018-09-28T12:02:07.605Z,4.00
2018-09-28T12:04:35.953Z,3.25
2018-09-28T12:07:04.333Z,6.90
2018-09-28T12:09:32.709Z,3.60
2018-09-28T12:12:01.077Z,3.05
2018-09-28T12:14:29.444Z,4.67
2018-09-28T12:16:57.772Z,4.93
2018-09-28T12:19:26.141Z,6.27
2018-09-28T12:21:54.492Z,3.08
2018-09-28T12:24:23.050Z,4.53
2018-09-28T12:26:51.441Z,3.27
2018-09-28T12:29:19.765Z,9.80
2018-09-28T12:31:48.213Z,3.10
2018-09-28T12:34:16.550Z,2.63
2018-09-28T12:36:45.023Z,2.40
2018-09-28T12:39:13.677Z,2.50
2018-09-28T12:41:42.457Z,2.30
2018-09-28T12:44:12.073Z,2.62
2018-09-28T12:46:40.432Z,2.37
2018-09-28T12:49:08.804Z,3.08
2018-09-28T12:51:37.259Z,2.12
2018-09-28T12:54:05.890Z,2.50
2018-09-28T12:56:34.316Z,2.40
2018-09-28T12:59:02.674Z,2.10
2018-09-28T13:01:31.013Z,2.50
2018-09-28T13:03:59.351Z,2.37
2018-09-28T13:06:27.723Z,2.67
2018-09-28T13:08:56.056Z,1.90
2018-09-28T13:11:24.403Z,2.27
2018-09-28T13:13:52.769Z,2.10
2018-09-28T13:16:21.159Z,2.47
2018-09-28T13:18:49.585Z,1.90
2018-09-28T13:21:17.941Z,2.67
2018-09-28T13:23:46.279Z,2.57
2018-09-28T13:26:14.645Z,2.00
2018-09-28T13:28:42.981Z,2.80
2018-09-28T13:31:11.301Z,2.35
2018-09-28T13:33:39.716Z,2.20
2018-09-28T13:36:08.168Z,1.90
2018-09-28T13:38:36.663Z,1.70
2018-09-28T13:41:04.879Z,2.47
2018-09-28T13:43:33.225Z,2.35
2018-09-28T13:46:01.803Z,1.83
2018-09-28T13:48:30.163Z,2.12
2018-09-28T13:50:58.498Z,2.20
2018-09-28T13:53:26.860Z,2.20
2018-09-28T13:55:55.196Z,2.40
2018-09-28T13:58:23.611Z,2.20
2018-09-28T14:00:51.954Z,2.15
2018-09-28T14:03:20.319Z,2.00
2018-09-28T14:05:48.650Z,2.07
2018-09-28T14:08:17.028Z,2.00
2018-09-28T14:10:45.376Z,1.67
2018-09-28T14:13:13.876Z,1.98
2018-09-28T14:15:42.198Z,1.70
2018-09-28T14:18:10.616Z,2.25
2018-09-28T14:20:38.961Z,1.95
2018-09-28T14:23:07.303Z,1.90
2018-09-28T14:25:35.777Z,2.40
2018-09-28T14:28:04.309Z,2.03
2018-09-28T14:30:32.625Z,2.15
2018-09-28T14:33:00.980Z,1.85
2018-09-28T14:35:29.371Z,1.80
2018-09-28T14:37:57.723Z,2.30
2018-09-28T14:40:26.128Z,2.00
2018-09-28T14:42:55.642Z,1.63
2018-09-28T14:45:24.001Z,1.80
2018-09-28T14:47:52.434Z,1.90
2018-09-28T14:50:20.833Z,1.50
2018-09-28T14:52:49.230Z,1.70
2018-09-28T14:55:18.931Z,1.93
2018-09-28T14:57:47.291Z,2.27
2018-09-28T15:00:15.714Z,1.70
2018-09-28T15:02:44.111Z,2.25
2018-09-28T15:05:12.948Z,1.90
2018-09-28T15:07:41.329Z,2.00
2018-09-28T15:10:09.728Z,2.85
2018-09-28T15:12:38.159Z,2.58
2018-09-28T15:15:06.699Z,1.87
2018-09-28T15:17:35.092Z,2.30
2018-09-28T15:20:03.436Z,2.20
2018-09-28T15:22:31.807Z,1.87
2018-09-28T15:25:00.145Z,2.30
2018-09-28T15:27:28.491Z,1.60
2018-09-28T15:29:56.837Z,2.30
2018-09-28T15:32:25.195Z,2.00
2018-09-28T15:34:53.518Z,1.60
2018-09-28T15:37:21.813Z,2.30
2018-09-28T15:39:50.167Z,1.83
2018-09-28T15:42:18.534Z,1.67
2018-09-28T15:44:46.892Z,1.30
2018-09-28T15:47:15.191Z,1.32
2018-09-28T15:49:43.541Z,1.40
2018-09-28T15:52:11.860Z,1.30
2018-09-28T15:54:40.228Z,1.40
2018-09-28T15:57:09.845Z,1.50
2018-09-28T15:59:38.223Z,1.40
2018-09-28T16:02:06.970Z,1.80
2018-09-28T16:04:35.341Z,3.20
2018-09-28T16:07:03.768Z,1.00
2018-09-28T16:09:32.249Z,1.90
2018-09-28T16:12:00.577Z,1.40
2018-09-28T16:14:28.956Z,1.80
2018-09-28T16:16:57.366Z,1.80
2018-09-28T16:19:26.094Z,1.30
2018-09-28T16:21:54.464Z,1.30
2018-09-28T16:24:22.809Z,1.70
2018-09-28T16:26:51.136Z,1.30
2018-09-28T16:29:19.502Z,1.20
2018-09-28T16:31:47.858Z,2.20
2018-09-28T16:34:16.216Z,1.70
2018-09-28T16:36:44.544Z,2.00
2018-09-28T16:39:13.093Z,1.77
2018-09-28T16:41:42.003Z,1.37
2018-09-28T16:44:10.371Z,1.80
2018-09-28T16:46:38.722Z,1.40
2018-09-28T16:49:07.056Z,1.80
2018-09-28T16:51:35.423Z,1.70
2018-09-28T16:54:04.537Z,1.85
2018-09-28T16:56:32.891Z,1.60
2018-09-28T16:59:01.323Z,1.60
2018-09-28T17:01:29.715Z,2.00
2018-09-28T17:03:58.027Z,1.60
2018-09-28T17:06:26.425Z,1.33
2018-09-28T17:08:54.767Z,1.30
2018-09-28T17:11:23.079Z,1.40
2018-09-28T17:13:51.427Z,1.47
2018-09-28T17:16:19.759Z,1.70
2018-09-28T17:18:48.106Z,1.40
2018-09-28T17:21:16.436Z,1.30
2018-09-28T17:23:44.772Z,1.42
2018-09-28T17:26:13.093Z,1.60
2018-09-28T17:28:41.510Z,1.80
2018-09-28T17:31:09.809Z,1.20
2018-09-28T17:33:38.165Z,1.67
2018-09-28T17:36:06.475Z,1.50
2018-09-28T17:38:34.788Z,1.90
2018-09-28T17:41:03.104Z,2.42
2018-09-28T17:43:31.431Z,1.65
2018-09-28T17:45:59.791Z,2.20
2018-09-28T17:48:28.200Z,2.63
2018-09-28T17:50:56.497Z,3.35
2018-09-28T17:53:25.353Z,2.65
2018-09-28T17:55:53.648Z,2.63
2018-09-28T17:58:21.996Z,2.47
2018-09-28T18:00:50.351Z,2.70
2018-09-28T18:03:18.661Z,2.30
2018-09-28T18:05:47.008Z,3.80
2018-09-28T18:08:15.361Z,4.92
2018-09-28T18:10:43.768Z,2.75
2018-09-28T18:13:12.064Z,1.40
2018-09-28T18:15:40.345Z,1.77
2018-09-28T18:18:08.666Z,1.70
2018-09-28T18:20:36.973Z,1.82
2018-09-28T18:23:06.135Z,2.60
2018-09-28T18:25:35.168Z,3.27
2018-09-28T18:28:03.493Z,2.40
2018-09-28T18:30:31.826Z,1.52
2018-09-28T18:33:00.148Z,2.75
2018-09-28T18:35:28.874Z,2.55
2018-09-28T18:37:57.216Z,1.40
2018-09-28T18:40:25.835Z,1.85
2018-09-28T18:42:54.156Z,1.62
2018-09-28T18:45:22.553Z,1.67
2018-09-28T18:47:50.847Z,1.60
2018-09-28T18:50:19.175Z,1.87
2018-09-28T18:52:47.455Z,2.20
2018-09-28T18:55:15.797Z,2.17
2018-09-28T18:57:44.108Z,2.30
2018-09-28T19:00:12.412Z,2.50
2018-09-28T19:02:40.893Z,2.93
2018-09-28T19:05:09.416Z,2.62
2018-09-28T19:07:37.775Z,2.72
2018-09-28T19:10:06.288Z,2.52
2018-09-28T19:12:49.541Z,2.50
2018-09-28T19:15:21.598Z,2.00
2018-09-28T19:17:50.128Z,2.02
2018-09-28T19:20:18.461Z,1.95
2018-09-28T19:22:46.983Z,3.05
2018-09-28T19:25:15.311Z,2.60
2018-09-28T19:27:43.638Z,2.17
2018-09-28T19:30:11.990Z,1.85
2018-09-28T19:32:40.520Z,2.30
2018-09-28T19:35:08.876Z,1.80
2018-09-28T19:37:37.996Z,2.20
2018-09-28T19:40:06.343Z,1.80
2018-09-28T19:42:34.633Z,1.45
2018-09-28T19:45:02.958Z,1.87
2018-09-28T19:47:31.582Z,2.55
2018-09-28T19:49:59.927Z,2.30
2018-09-28T19:52:28.496Z,2.12
2018-09-28T19:54:56.918Z,2.33
2018-09-28T19:57:25.200Z,2.10
2018-09-28T19:59:53.509Z,2.00
2018-09-28T20:02:21.857Z,1.90
2018-09-28T20:04:50.167Z,2.20
2018-09-28T20:07:18.443Z,2.00
2018-09-28T20:09:46.804Z,1.90
2018-09-28T20:12:15.109Z,1.60
2018-09-28T20:14:47.238Z,2.00
2018-09-28T20:17:15.539Z,2.30
2018-09-28T20:19:43.846Z,2.40
2018-09-28T20:22:13.681Z,2.30
2018-09-28T20:24:41.985Z,1.90
2018-09-28T20:27:10.354Z,2.07
2018-09-28T20:29:38.687Z,2.08
2018-09-28T20:32:07.046Z,2.35
2018-09-28T20:34:35.385Z,1.80
2018-09-28T20:37:03.862Z,1.80
2018-09-28T20:39:32.139Z,1.90
2018-09-28T20:42:00.469Z,1.90
2018-09-28T20:44:28.820Z,1.90
2018-09-28T20:46:57.311Z,2.10
2018-09-28T20:49:25.647Z,7.53
2018-09-28T20:51:53.958Z,2.17
2018-09-28T20:54:22.253Z,1.70
2018-09-28T20:56:50.653Z,2.30
2018-09-28T20:59:19.212Z,1.90
2018-09-28T21:01:47.480Z,1.62
2018-09-28T21:04:15.846Z,2.30
2018-09-28T21:06:44.208Z,1.90
2018-09-28T21:09:12.564Z,1.98
2018-09-28T21:11:40.895Z,1.87
2018-09-28T21:14:09.208Z,2.52
2018-09-28T21:16:37.538Z,1.85
2018-09-28T21:19:05.887Z,2.08
2018-09-28T21:21:34.247Z,2.40
2018-09-28T21:24:02.560Z,2.70
2018-09-28T21:26:30.919Z,2.15
2018-09-28T21:28:59.334Z,2.10
2018-09-28T21:31:27.650Z,2.00
2018-09-28T21:33:55.944Z,2.60
2018-09-28T21:36:24.236Z,2.02
2018-09-28T21:38:52.536Z,2.12
2018-09-28T21:41:20.904Z,2.33
2018-09-28T21:43:49.249Z,2.00
2018-09-28T21:46:17.540Z,1.90
2018-09-28T21:48:45.887Z,2.10
2018-09-28T21:51:14.180Z,1.90
2018-09-28T21:53:42.563Z,2.55
2018-09-28T21:56:10.941Z,1.98
2018-09-28T21:58:39.262Z,2.20
2018-09-28T22:01:07.814Z,2.80
2018-09-28T22:03:36.157Z,2.40
2018-09-28T22:06:04.545Z,1.90
2018-09-28T22:08:32.852Z,2.10
2018-09-28T22:11:01.193Z,2.30
2018-09-28T22:13:53.425Z,3.15
2018-09-28T22:16:22.336Z,2.20
2018-09-28T22:18:50.653Z,2.40
2018-09-28T22:21:18.968Z,2.00
2018-09-28T22:23:47.313Z,1.98
2018-09-28T22:26:15.619Z,2.00
2018-09-28T22:28:43.928Z,2.08
2018-09-28T22:31:12.281Z,2.52
2018-09-28T22:33:40.613Z,2.27
2018-09-28T22:36:08.957Z,1.70
2018-09-28T22:38:37.254Z,2.02
2018-09-28T22:41:05.610Z,2.00
2018-09-28T22:43:34.128Z,2.85
2018-09-28T22:46:02.470Z,2.55
2018-09-28T22:48:30.772Z,3.00
2018-09-28T22:50:59.057Z,3.00
2018-09-28T22:53:27.566Z,3.33
2018-09-28T22:55:55.896Z,3.50
2018-09-28T22:58:24.211Z,3.00
2018-09-28T23:00:52.532Z,3.00
2018-09-28T23:03:20.856Z,3.20
2018-09-28T23:05:49.138Z,2.90
2018-09-28T23:08:17.520Z,3.30
2018-09-28T23:10:45.855Z,3.08
2018-09-28T23:13:14.191Z,3.52
2018-09-28T23:15:42.480Z,3.08
2018-09-28T23:18:10.866Z,2.90
2018-09-28T23:20:39.166Z,4.20
2018-09-28T23:23:07.453Z,3.47
2018-09-28T23:25:35.758Z,3.10
2018-09-28T23:28:04.089Z,2.90
2018-09-28T23:30:32.383Z,2.90
2018-09-28T23:33:00.697Z,3.22
2018-09-28T23:35:29.128Z,3.10
2018-09-28T23:37:57.585Z,3.00
2018-09-28T23:40:25.890Z,3.20
2018-09-28T23:42:54.331Z,2.65
2018-09-28T23:45:23.044Z,3.30
2018-09-28T23:47:51.364Z,3.00
2018-09-28T23:50:19.651Z,2.42
2018-09-28T23:52:47.954Z,2.60
2018-09-28T23:55:16.262Z,2.60
2018-09-28T23:57:44.650Z,3.65
